sensor_id;sensor_type;location;lat;lon;timestamp;P1;durP1;ratioP1;P2;durP2;ratioP2
74791;SDS011;63319;46.046;17.802;2023-12-22T00:01:13;18.23;;;8.68;;
74791;SDS011;63319;46.046;17.802;2023-12-22T00:04:19;16.30;;;7.28;;
74791;SDS011;63319;46.046;17.802;2023-12-22T00:07:22;15.07;;;7.70;;
74791;SDS011;63319;46.046;17.802;2023-12-22T00:10:25;13.43;;;6.47;;
74791;SDS011;63319;46.046;17.802;2023-12-22T00:13:28;15.27;;;6.88;;
74791;SDS011;63319;46.046;17.802;2023-12-22T00:16:34;13.98;;;5.60;;
74791;SDS011;63319;46.046;17.802;2023-12-22T00:19:40;10.90;;;5.57;;
74791;SDS011;63319;46.046;17.802;2023-12-22T00:22:43;12.23;;;5.82;;
74791;SDS011;63319;46.046;17.802;2023-12-22T00:25:46;10.77;;;4.95;;
74791;SDS011;63319;46.046;17.802;2023-12-22T00:28:49;10.10;;;4.73;;
74791;SDS011;63319;46.046;17.802;2023-12-22T00:31:52;12.27;;;5.82;;
74791;SDS011;63319;46.046;17.802;2023-12-22T00:34:55;9.05;;;5.00;;
74791;SDS011;63319;46.046;17.802;2023-12-22T00:37:59;12.57;;;5.80;;
74791;SDS011;63319;46.046;17.802;2023-12-22T00:41:02;11.00;;;5.43;;
74791;SDS011;63319;46.046;17.802;2023-12-22T00:44:05;9.05;;;5.10;;
74791;SDS011;63319;46.046;17.802;2023-12-22T00:47:08;13.07;;;5.68;;
74791;SDS011;63319;46.046;17.802;2023-12-22T00:50:11;13.25;;;6.18;;
74791;SDS011;63319;46.046;17.802;2023-12-22T00:53:14;13.80;;;7.07;;
74791;SDS011;63319;46.046;17.802;2023-12-22T00:56:17;14.85;;;6.38;;
74791;SDS011;63319;46.046;17.802;2023-12-22T00:59:20;11.20;;;5.90;;
74791;SDS011;63319;46.046;17.802;2023-12-22T01:02:23;11.73;;;6.43;;
74791;SDS011;63319;46.046;17.802;2023-12-22T01:05:26;9.52;;;5.68;;
74791;SDS011;63319;46.046;17.802;2023-12-22T01:08:29;11.73;;;5.57;;
74791;SDS011;63319;46.046;17.802;2023-12-22T01:11:32;12.13;;;6.07;;
74791;SDS011;63319;46.046;17.802;2023-12-22T01:14:35;10.55;;;5.80;;
74791;SDS011;63319;46.046;17.802;2023-12-22T01:17:38;14.93;;;6.05;;
74791;SDS011;63319;46.046;17.802;2023-12-22T01:20:41;11.02;;;5.72;;
74791;SDS011;63319;46.046;17.802;2023-12-22T01:23:44;10.65;;;6.10;;
74791;SDS011;63319;46.046;17.802;2023-12-22T01:26:47;14.30;;;6.63;;
74791;SDS011;63319;46.046;17.802;2023-12-22T01:29:50;12.97;;;5.97;;
74791;SDS011;63319;46.046;17.802;2023-12-22T01:32:52;11.98;;;6.53;;
74791;SDS011;63319;46.046;17.802;2023-12-22T01:35:56;14.15;;;7.55;;
74791;SDS011;63319;46.046;17.802;2023-12-22T01:38:59;13.53;;;8.07;;
74791;SDS011;63319;46.046;17.802;2023-12-22T01:42:02;15.90;;;8.32;;
74791;SDS011;63319;46.046;17.802;2023-12-22T01:45:05;13.60;;;7.45;;
74791;SDS011;63319;46.046;17.802;2023-12-22T01:48:09;14.65;;;7.63;;
74791;SDS011;63319;46.046;17.802;2023-12-22T01:51:12;13.95;;;7.38;;
74791;SDS011;63319;46.046;17.802;2023-12-22T01:54:15;15.45;;;9.10;;
74791;SDS011;63319;46.046;17.802;2023-12-22T01:57:18;16.88;;;9.02;;
74791;SDS011;63319;46.046;17.802;2023-12-22T02:00:21;15.67;;;9.23;;
74791;SDS011;63319;46.046;17.802;2023-12-22T02:03:25;17.38;;;9.68;;
74791;SDS011;63319;46.046;17.802;2023-12-22T02:06:29;17.35;;;9.88;;
74791;SDS011;63319;46.046;17.802;2023-12-22T02:09:33;17.83;;;9.63;;
74791;SDS011;63319;46.046;17.802;2023-12-22T02:12:36;16.83;;;9.88;;
74791;SDS011;63319;46.046;17.802;2023-12-22T02:15:40;19.38;;;9.98;;
74791;SDS011;63319;46.046;17.802;2023-12-22T02:18:43;17.42;;;9.85;;
74791;SDS011;63319;46.046;17.802;2023-12-22T02:22:00;15.38;;;8.93;;
74791;SDS011;63319;46.046;17.802;2023-12-22T02:25:11;17.05;;;9.48;;
74791;SDS011;63319;46.046;17.802;2023-12-22T02:28:15;17.92;;;9.52;;
74791;SDS011;63319;46.046;17.802;2023-12-22T02:31:33;18.53;;;9.17;;
74791;SDS011;63319;46.046;17.802;2023-12-22T02:34:39;18.75;;;10.15;;
74791;SDS011;63319;46.046;17.802;2023-12-22T02:37:46;16.88;;;9.52;;
74791;SDS011;63319;46.046;17.802;2023-12-22T02:40:50;16.43;;;9.70;;
74791;SDS011;63319;46.046;17.802;2023-12-22T02:43:54;16.33;;;8.80;;
74791;SDS011;63319;46.046;17.802;2023-12-22T02:46:57;14.90;;;8.82;;
74791;SDS011;63319;46.046;17.802;2023-12-22T02:50:00;16.27;;;9.52;;
74791;SDS011;63319;46.046;17.802;2023-12-22T02:53:03;15.73;;;8.88;;
74791;SDS011;63319;46.046;17.802;2023-12-22T02:56:06;17.33;;;10.40;;
74791;SDS011;63319;46.046;17.802;2023-12-22T02:59:09;17.65;;;9.68;;
74791;SDS011;63319;46.046;17.802;2023-12-22T03:02:13;20.00;;;10.97;;
74791;SDS011;63319;46.046;17.802;2023-12-22T03:05:15;16.67;;;9.70;;
74791;SDS011;63319;46.046;17.802;2023-12-22T03:08:19;17.50;;;8.13;;
74791;SDS011;63319;46.046;17.802;2023-12-22T03:11:22;13.60;;;7.50;;
74791;SDS011;63319;46.046;17.802;2023-12-22T03:14:25;14.80;;;7.90;;
74791;SDS011;63319;46.046;17.802;2023-12-22T03:17:28;13.65;;;7.53;;
74791;SDS011;63319;46.046;17.802;2023-12-22T03:20:31;14.85;;;7.93;;
74791;SDS011;63319;46.046;17.802;2023-12-22T03:23:35;17.63;;;7.85;;
74791;SDS011;63319;46.046;17.802;2023-12-22T03:26:38;14.45;;;8.32;;
74791;SDS011;63319;46.046;17.802;2023-12-22T03:29:41;18.88;;;9.13;;
74791;SDS011;63319;46.046;17.802;2023-12-22T03:32:43;16.93;;;9.17;;
74791;SDS011;63319;46.046;17.802;2023-12-22T03:35:46;17.75;;;8.73;;
74791;SDS011;63319;46.046;17.802;2023-12-22T03:38:49;25.38;;;9.27;;
74791;SDS011;63319;46.046;17.802;2023-12-22T03:41:52;18.17;;;9.03;;
74791;SDS011;63319;46.046;17.802;2023-12-22T03:44:55;18.38;;;9.32;;
74791;SDS011;63319;46.046;17.802;2023-12-22T03:47:58;17.10;;;9.35;;
74791;SDS011;63319;46.046;17.802;2023-12-22T03:51:01;17.60;;;9.90;;
74791;SDS011;63319;46.046;17.802;2023-12-22T03:54:04;17.15;;;9.38;;
74791;SDS011;63319;46.046;17.802;2023-12-22T03:57:06;15.13;;;8.93;;
74791;SDS011;63319;46.046;17.802;2023-12-22T04:00:10;18.52;;;9.18;;
74791;SDS011;63319;46.046;17.802;2023-12-22T04:03:13;16.67;;;8.97;;
74791;SDS011;63319;46.046;17.802;2023-12-22T04:06:16;19.38;;;9.85;;
74791;SDS011;63319;46.046;17.802;2023-12-22T04:09:19;18.40;;;8.25;;
74791;SDS011;63319;46.046;17.802;2023-12-22T04:12:22;14.70;;;8.07;;
74791;SDS011;63319;46.046;17.802;2023-12-22T04:15:25;14.50;;;7.85;;
74791;SDS011;63319;46.046;17.802;2023-12-22T04:18:29;40.95;;;15.25;;
74791;SDS011;63319;46.046;17.802;2023-12-22T04:21:32;54.75;;;21.20;;
74791;SDS011;63319;46.046;17.802;2023-12-22T04:24:35;30.77;;;13.25;;
74791;SDS011;63319;46.046;17.802;2023-12-22T04:27:38;23.88;;;11.75;;
74791;SDS011;63319;46.046;17.802;2023-12-22T04:30:41;19.77;;;10.80;;
74791;SDS011;63319;46.046;17.802;2023-12-22T04:33:44;20.63;;;10.87;;
74791;SDS011;63319;46.046;17.802;2023-12-22T04:36:47;18.70;;;10.13;;
74791;SDS011;63319;46.046;17.802;2023-12-22T04:39:50;20.33;;;12.13;;
74791;SDS011;63319;46.046;17.802;2023-12-22T04:42:53;16.30;;;9.97;;
74791;SDS011;63319;46.046;17.802;2023-12-22T04:45:57;15.77;;;9.38;;
74791;SDS011;63319;46.046;17.802;2023-12-22T04:49:00;20.20;;;10.70;;
74791;SDS011;63319;46.046;17.802;2023-12-22T04:52:04;17.23;;;9.93;;
74791;SDS011;63319;46.046;17.802;2023-12-22T04:55:08;14.43;;;8.85;;
74791;SDS011;63319;46.046;17.802;2023-12-22T04:58:11;14.52;;;7.65;;
74791;SDS011;63319;46.046;17.802;2023-12-22T05:01:14;15.15;;;8.55;;
74791;SDS011;63319;46.046;17.802;2023-12-22T05:04:17;17.47;;;9.40;;
74791;SDS011;63319;46.046;17.802;2023-12-22T05:07:20;14.93;;;9.15;;
74791;SDS011;63319;46.046;17.802;2023-12-22T05:10:23;13.30;;;7.93;;
74791;SDS011;63319;46.046;17.802;2023-12-22T05:13:26;15.43;;;8.03;;
74791;SDS011;63319;46.046;17.802;2023-12-22T05:16:29;18.35;;;8.68;;
74791;SDS011;63319;46.046;17.802;2023-12-22T05:19:34;12.63;;;6.95;;
74791;SDS011;63319;46.046;17.802;2023-12-22T05:22:37;12.52;;;6.95;;
74791;SDS011;63319;46.046;17.802;2023-12-22T05:25:40;11.98;;;6.68;;
74791;SDS011;63319;46.046;17.802;2023-12-22T05:28:43;11.45;;;6.85;;
74791;SDS011;63319;46.046;17.802;2023-12-22T05:31:46;12.60;;;7.90;;
74791;SDS011;63319;46.046;17.802;2023-12-22T05:34:50;16.47;;;8.00;;
74791;SDS011;63319;46.046;17.802;2023-12-22T05:37:52;13.20;;;7.05;;
74791;SDS011;63319;46.046;17.802;2023-12-22T05:40:56;12.07;;;6.75;;
74791;SDS011;63319;46.046;17.802;2023-12-22T05:43:59;15.07;;;7.10;;
74791;SDS011;63319;46.046;17.802;2023-12-22T05:47:02;13.75;;;6.65;;
74791;SDS011;63319;46.046;17.802;2023-12-22T05:50:05;10.77;;;6.35;;
74791;SDS011;63319;46.046;17.802;2023-12-22T05:53:09;11.73;;;6.13;;
74791;SDS011;63319;46.046;17.802;2023-12-22T05:56:20;12.20;;;6.40;;
74791;SDS011;63319;46.046;17.802;2023-12-22T05:59:23;9.75;;;6.00;;
74791;SDS011;63319;46.046;17.802;2023-12-22T06:02:27;15.10;;;9.82;;
74791;SDS011;63319;46.046;17.802;2023-12-22T06:05:30;10.47;;;5.97;;
74791;SDS011;63319;46.046;17.802;2023-12-22T06:08:33;14.63;;;7.70;;
74791;SDS011;63319;46.046;17.802;2023-12-22T06:11:36;13.23;;;7.53;;
74791;SDS011;63319;46.046;17.802;2023-12-22T06:14:39;12.47;;;7.33;;
74791;SDS011;63319;46.046;17.802;2023-12-22T06:17:42;13.45;;;7.05;;
74791;SDS011;63319;46.046;17.802;2023-12-22T06:20:45;18.55;;;9.68;;
74791;SDS011;63319;46.046;17.802;2023-12-22T06:23:48;27.73;;;13.57;;
74791;SDS011;63319;46.046;17.802;2023-12-22T06:26:51;72.50;;;31.85;;
74791;SDS011;63319;46.046;17.802;2023-12-22T06:29:54;63.08;;;27.83;;
74791;SDS011;63319;46.046;17.802;2023-12-22T06:32:58;65.95;;;31.20;;
74791;SDS011;63319;46.046;17.802;2023-12-22T06:36:01;41.47;;;19.73;;
74791;SDS011;63319;46.046;17.802;2023-12-22T06:39:04;42.13;;;19.92;;
74791;SDS011;63319;46.046;17.802;2023-12-22T06:42:07;38.08;;;18.33;;
74791;SDS011;63319;46.046;17.802;2023-12-22T06:45:13;44.23;;;23.90;;
74791;SDS011;63319;46.046;17.802;2023-12-22T06:48:16;51.45;;;24.42;;
74791;SDS011;63319;46.046;17.802;2023-12-22T06:51:20;44.30;;;24.98;;
74791;SDS011;63319;46.046;17.802;2023-12-22T06:54:25;46.00;;;26.48;;
74791;SDS011;63319;46.046;17.802;2023-12-22T06:57:27;37.75;;;22.67;;
74791;SDS011;63319;46.046;17.802;2023-12-22T07:00:31;41.10;;;23.38;;
74791;SDS011;63319;46.046;17.802;2023-12-22T07:03:34;41.55;;;22.23;;
74791;SDS011;63319;46.046;17.802;2023-12-22T07:06:37;41.87;;;23.80;;
74791;SDS011;63319;46.046;17.802;2023-12-22T07:09:40;66.53;;;35.78;;
74791;SDS011;63319;46.046;17.802;2023-12-22T07:12:43;67.00;;;34.92;;
74791;SDS011;63319;46.046;17.802;2023-12-22T07:15:46;126.53;;;67.93;;
74791;SDS011;63319;46.046;17.802;2023-12-22T07:18:49;135.80;;;72.35;;
74791;SDS011;63319;46.046;17.802;2023-12-22T07:21:52;141.60;;;79.45;;
74791;SDS011;63319;46.046;17.802;2023-12-22T07:24:55;113.43;;;65.40;;
74791;SDS011;63319;46.046;17.802;2023-12-22T07:28:00;112.22;;;63.15;;
74791;SDS011;63319;46.046;17.802;2023-12-22T07:31:03;105.65;;;59.53;;
74791;SDS011;63319;46.046;17.802;2023-12-22T07:34:07;103.82;;;56.35;;
74791;SDS011;63319;46.046;17.802;2023-12-22T07:37:11;128.73;;;59.43;;
74791;SDS011;63319;46.046;17.802;2023-12-22T07:40:15;133.63;;;63.00;;
74791;SDS011;63319;46.046;17.802;2023-12-22T07:43:19;112.88;;;56.03;;
74791;SDS011;63319;46.046;17.802;2023-12-22T07:46:22;95.20;;;47.87;;
74791;SDS011;63319;46.046;17.802;2023-12-22T07:49:26;93.70;;;48.33;;
74791;SDS011;63319;46.046;17.802;2023-12-22T07:52:31;78.72;;;43.45;;
74791;SDS011;63319;46.046;17.802;2023-12-22T07:55:34;85.65;;;42.03;;
74791;SDS011;63319;46.046;17.802;2023-12-22T07:58:37;71.93;;;37.08;;
74791;SDS011;63319;46.046;17.802;2023-12-22T08:01:40;71.30;;;38.13;;
74791;SDS011;63319;46.046;17.802;2023-12-22T08:04:43;70.82;;;36.45;;
74791;SDS011;63319;46.046;17.802;2023-12-22T08:07:47;53.10;;;30.80;;
74791;SDS011;63319;46.046;17.802;2023-12-22T08:10:50;51.50;;;32.53;;
74791;SDS011;63319;46.046;17.802;2023-12-22T08:13:53;46.80;;;23.20;;
74791;SDS011;63319;46.046;17.802;2023-12-22T08:16:57;47.10;;;27.83;;
74791;SDS011;63319;46.046;17.802;2023-12-22T08:20:00;45.50;;;28.13;;
74791;SDS011;63319;46.046;17.802;2023-12-22T08:23:14;38.90;;;21.90;;
74791;SDS011;63319;46.046;17.802;2023-12-22T08:26:18;34.78;;;22.08;;
74791;SDS011;63319;46.046;17.802;2023-12-22T08:29:22;21.90;;;13.60;;
74791;SDS011;63319;46.046;17.802;2023-12-22T08:32:25;19.88;;;12.80;;
74791;SDS011;63319;46.046;17.802;2023-12-22T08:35:46;21.63;;;13.48;;
74791;SDS011;63319;46.046;17.802;2023-12-22T08:38:49;20.50;;;13.52;;
74791;SDS011;63319;46.046;17.802;2023-12-22T08:41:52;22.53;;;13.80;;
74791;SDS011;63319;46.046;17.802;2023-12-22T08:44:56;16.42;;;10.20;;
74791;SDS011;63319;46.046;17.802;2023-12-22T08:47:59;14.55;;;9.57;;
74791;SDS011;63319;46.046;17.802;2023-12-22T08:51:02;14.13;;;8.27;;
74791;SDS011;63319;46.046;17.802;2023-12-22T08:54:06;12.57;;;7.00;;
74791;SDS011;63319;46.046;17.802;2023-12-22T08:57:09;9.40;;;5.27;;
74791;SDS011;63319;46.046;17.802;2023-12-22T09:00:15;10.80;;;5.53;;
74791;SDS011;63319;46.046;17.802;2023-12-22T09:03:18;8.77;;;5.20;;
74791;SDS011;63319;46.046;17.802;2023-12-22T09:06:22;8.73;;;4.90;;
74791;SDS011;63319;46.046;17.802;2023-12-22T09:09:25;9.60;;;4.87;;
74791;SDS011;63319;46.046;17.802;2023-12-22T09:12:30;11.00;;;3.93;;
74791;SDS011;63319;46.046;17.802;2023-12-22T09:15:33;8.10;;;3.70;;
74791;SDS011;63319;46.046;17.802;2023-12-22T09:18:36;10.43;;;4.20;;
74791;SDS011;63319;46.046;17.802;2023-12-22T09:21:39;10.83;;;4.60;;
74791;SDS011;63319;46.046;17.802;2023-12-22T09:24:42;17.02;;;7.32;;
74791;SDS011;63319;46.046;17.802;2023-12-22T09:27:45;13.98;;;6.18;;
74791;SDS011;63319;46.046;17.802;2023-12-22T09:30:49;16.05;;;8.07;;
74791;SDS011;63319;46.046;17.802;2023-12-22T09:33:52;13.70;;;5.83;;
74791;SDS011;63319;46.046;17.802;2023-12-22T09:36:55;14.43;;;7.03;;
74791;SDS011;63319;46.046;17.802;2023-12-22T09:39:59;12.63;;;5.82;;
74791;SDS011;63319;46.046;17.802;2023-12-22T09:43:03;8.87;;;4.07;;
74791;SDS011;63319;46.046;17.802;2023-12-22T09:46:07;8.52;;;2.92;;
74791;SDS011;63319;46.046;17.802;2023-12-22T09:49:12;7.15;;;2.75;;
74791;SDS011;63319;46.046;17.802;2023-12-22T09:52:16;7.45;;;3.08;;
74791;SDS011;63319;46.046;17.802;2023-12-22T09:55:23;8.48;;;3.03;;
74791;SDS011;63319;46.046;17.802;2023-12-22T09:58:29;12.27;;;3.65;;
74791;SDS011;63319;46.046;17.802;2023-12-22T10:01:33;11.65;;;3.95;;
74791;SDS011;63319;46.046;17.802;2023-12-22T10:04:37;8.13;;;3.13;;
74791;SDS011;63319;46.046;17.802;2023-12-22T10:07:44;13.75;;;3.28;;
74791;SDS011;63319;46.046;17.802;2023-12-22T10:10:50;7.70;;;3.28;;
74791;SDS011;63319;46.046;17.802;2023-12-22T10:13:55;5.70;;;2.60;;
74791;SDS011;63319;46.046;17.802;2023-12-22T10:16:59;7.30;;;2.60;;
74791;SDS011;63319;46.046;17.802;2023-12-22T10:20:02;8.35;;;2.35;;
74791;SDS011;63319;46.046;17.802;2023-12-22T10:23:07;5.75;;;2.42;;
74791;SDS011;63319;46.046;17.802;2023-12-22T10:26:13;6.15;;;2.58;;
74791;SDS011;63319;46.046;17.802;2023-12-22T10:29:16;11.98;;;4.05;;
74791;SDS011;63319;46.046;17.802;2023-12-22T10:32:19;9.48;;;3.53;;
74791;SDS011;63319;46.046;17.802;2023-12-22T10:35:23;8.13;;;2.80;;
74791;SDS011;63319;46.046;17.802;2023-12-22T10:38:27;5.50;;;2.85;;
74791;SDS011;63319;46.046;17.802;2023-12-22T10:41:36;9.60;;;2.55;;
74791;SDS011;63319;46.046;17.802;2023-12-22T10:44:39;6.47;;;2.67;;
74791;SDS011;63319;46.046;17.802;2023-12-22T10:47:42;8.30;;;3.17;;
74791;SDS011;63319;46.046;17.802;2023-12-22T10:50:45;9.32;;;4.25;;
74791;SDS011;63319;46.046;17.802;2023-12-22T10:53:49;8.15;;;4.28;;
74791;SDS011;63319;46.046;17.802;2023-12-22T10:57:00;6.43;;;2.63;;
74791;SDS011;63319;46.046;17.802;2023-12-22T11:00:03;9.73;;;4.07;;
74791;SDS011;63319;46.046;17.802;2023-12-22T11:03:10;9.77;;;5.25;;
74791;SDS011;63319;46.046;17.802;2023-12-22T11:06:18;11.30;;;5.17;;
74791;SDS011;63319;46.046;17.802;2023-12-22T11:09:23;8.07;;;4.20;;
74791;SDS011;63319;46.046;17.802;2023-12-22T11:12:33;10.30;;;4.40;;
74791;SDS011;63319;46.046;17.802;2023-12-22T11:15:39;12.87;;;5.17;;
74791;SDS011;63319;46.046;17.802;2023-12-22T11:18:42;13.93;;;6.10;;
74791;SDS011;63319;46.046;17.802;2023-12-22T11:21:47;11.20;;;5.28;;
74791;SDS011;63319;46.046;17.802;2023-12-22T11:24:53;11.70;;;5.43;;
74791;SDS011;63319;46.046;17.802;2023-12-22T11:27:56;11.23;;;4.78;;
74791;SDS011;63319;46.046;17.802;2023-12-22T11:31:01;12.00;;;2.97;;
74791;SDS011;63319;46.046;17.802;2023-12-22T11:34:04;7.97;;;2.35;;
74791;SDS011;63319;46.046;17.802;2023-12-22T11:37:17;8.03;;;3.47;;
74791;SDS011;63319;46.046;17.802;2023-12-22T11:40:20;11.27;;;4.38;;
74791;SDS011;63319;46.046;17.802;2023-12-22T11:43:24;8.45;;;3.10;;
74791;SDS011;63319;46.046;17.802;2023-12-22T11:46:27;4.33;;;1.20;;
74791;SDS011;63319;46.046;17.802;2023-12-22T11:49:33;4.50;;;1.42;;
74791;SDS011;63319;46.046;17.802;2023-12-22T11:52:37;11.27;;;2.88;;
74791;SDS011;63319;46.046;17.802;2023-12-22T11:59:08;7.78;;;2.40;;
74791;SDS011;63319;46.046;17.802;2023-12-22T12:02:11;6.35;;;2.35;;
74791;SDS011;63319;46.046;17.802;2023-12-22T12:05:14;9.27;;;3.00;;
74791;SDS011;63319;46.046;17.802;2023-12-22T12:08:17;7.83;;;3.00;;
74791;SDS011;63319;46.046;17.802;2023-12-22T12:14:55;8.25;;;2.90;;
74791;SDS011;63319;46.046;17.802;2023-12-22T12:18:01;10.20;;;2.80;;
74791;SDS011;63319;46.046;17.802;2023-12-22T12:21:09;7.78;;;2.65;;
74791;SDS011;63319;46.046;17.802;2023-12-22T12:24:13;9.40;;;4.28;;
74791;SDS011;63319;46.046;17.802;2023-12-22T12:27:19;7.43;;;4.00;;
74791;SDS011;63319;46.046;17.802;2023-12-22T12:30:23;9.32;;;4.35;;
74791;SDS011;63319;46.046;17.802;2023-12-22T12:33:26;10.45;;;4.82;;
74791;SDS011;63319;46.046;17.802;2023-12-22T12:36:31;8.45;;;4.20;;
74791;SDS011;63319;46.046;17.802;2023-12-22T12:39:34;10.33;;;3.90;;
74791;SDS011;63319;46.046;17.802;2023-12-22T12:42:38;9.05;;;3.80;;
74791;SDS011;63319;46.046;17.802;2023-12-22T12:45:41;16.95;;;6.13;;
74791;SDS011;63319;46.046;17.802;2023-12-22T12:48:44;12.10;;;5.37;;
74791;SDS011;63319;46.046;17.802;2023-12-22T12:51:48;21.05;;;8.50;;
74791;SDS011;63319;46.046;17.802;2023-12-22T12:54:51;12.40;;;5.78;;
74791;SDS011;63319;46.046;17.802;2023-12-22T12:57:55;12.82;;;4.63;;
74791;SDS011;63319;46.046;17.802;2023-12-22T13:01:09;12.73;;;5.45;;
74791;SDS011;63319;46.046;17.802;2023-12-22T13:04:21;13.05;;;6.07;;
74791;SDS011;63319;46.046;17.802;2023-12-22T13:07:25;13.15;;;5.40;;
74791;SDS011;63319;46.046;17.802;2023-12-22T13:10:29;12.90;;;6.80;;
74791;SDS011;63319;46.046;17.802;2023-12-22T13:13:40;21.63;;;9.85;;
74791;SDS011;63319;46.046;17.802;2023-12-22T13:16:44;25.90;;;12.10;;
74791;SDS011;63319;46.046;17.802;2023-12-22T13:19:47;25.07;;;10.73;;
74791;SDS011;63319;46.046;17.802;2023-12-22T13:22:52;23.05;;;12.10;;
74791;SDS011;63319;46.046;17.802;2023-12-22T13:25:55;22.98;;;12.07;;
74791;SDS011;63319;46.046;17.802;2023-12-22T13:28:59;31.45;;;14.32;;
74791;SDS011;63319;46.046;17.802;2023-12-22T13:32:03;23.20;;;11.73;;
74791;SDS011;63319;46.046;17.802;2023-12-22T13:35:06;66.60;;;31.08;;
74791;SDS011;63319;46.046;17.802;2023-12-22T13:38:09;113.78;;;53.63;;
74791;SDS011;63319;46.046;17.802;2023-12-22T13:41:14;57.33;;;29.10;;
74791;SDS011;63319;46.046;17.802;2023-12-22T13:44:18;31.60;;;16.10;;
74791;SDS011;63319;46.046;17.802;2023-12-22T13:47:21;35.42;;;16.88;;
74791;SDS011;63319;46.046;17.802;2023-12-22T13:50:29;35.07;;;18.43;;
74791;SDS011;63319;46.046;17.802;2023-12-22T13:53:32;37.33;;;19.42;;
74791;SDS011;63319;46.046;17.802;2023-12-22T13:56:35;28.38;;;13.70;;
74791;SDS011;63319;46.046;17.802;2023-12-22T13:59:39;27.77;;;15.10;;
74791;SDS011;63319;46.046;17.802;2023-12-22T14:02:41;23.63;;;13.65;;
74791;SDS011;63319;46.046;17.802;2023-12-22T14:05:45;28.88;;;14.10;;
74791;SDS011;63319;46.046;17.802;2023-12-22T14:08:48;26.33;;;13.77;;
74791;SDS011;63319;46.046;17.802;2023-12-22T14:11:51;26.93;;;13.60;;
74791;SDS011;63319;46.046;17.802;2023-12-22T14:15:06;26.85;;;14.32;;
74791;SDS011;63319;46.046;17.802;2023-12-22T14:18:10;31.35;;;15.23;;
74791;SDS011;63319;46.046;17.802;2023-12-22T14:21:14;26.87;;;14.33;;
74791;SDS011;63319;46.046;17.802;2023-12-22T14:24:18;19.45;;;9.95;;
74791;SDS011;63319;46.046;17.802;2023-12-22T14:27:24;29.08;;;13.20;;
74791;SDS011;63319;46.046;17.802;2023-12-22T14:30:27;19.40;;;9.27;;
74791;SDS011;63319;46.046;17.802;2023-12-22T14:33:30;36.55;;;18.77;;
74791;SDS011;63319;46.046;17.802;2023-12-22T14:36:33;26.52;;;12.63;;
74791;SDS011;63319;46.046;17.802;2023-12-22T14:39:36;26.95;;;13.05;;
74791;SDS011;63319;46.046;17.802;2023-12-22T14:42:39;47.60;;;22.60;;
74791;SDS011;63319;46.046;17.802;2023-12-22T14:45:41;36.38;;;16.70;;
74791;SDS011;63319;46.046;17.802;2023-12-22T14:48:44;31.55;;;14.10;;
74791;SDS011;63319;46.046;17.802;2023-12-22T14:51:48;22.17;;;10.87;;
74791;SDS011;63319;46.046;17.802;2023-12-22T14:54:54;24.95;;;9.43;;
74791;SDS011;63319;46.046;17.802;2023-12-22T14:57:57;23.55;;;11.43;;
74791;SDS011;63319;46.046;17.802;2023-12-22T15:01:00;21.55;;;9.88;;
74791;SDS011;63319;46.046;17.802;2023-12-22T15:04:04;16.40;;;8.18;;
74791;SDS011;63319;46.046;17.802;2023-12-22T15:07:08;11.50;;;5.45;;
74791;SDS011;63319;46.046;17.802;2023-12-22T15:10:11;17.17;;;6.97;;
74791;SDS011;63319;46.046;17.802;2023-12-22T15:13:14;9.77;;;4.90;;
74791;SDS011;63319;46.046;17.802;2023-12-22T15:16:17;10.57;;;4.72;;
74791;SDS011;63319;46.046;17.802;2023-12-22T15:19:23;8.60;;;3.97;;
74791;SDS011;63319;46.046;17.802;2023-12-22T15:22:26;10.47;;;4.23;;
74791;SDS011;63319;46.046;17.802;2023-12-22T15:25:30;13.18;;;5.20;;
74791;SDS011;63319;46.046;17.802;2023-12-22T15:28:33;24.73;;;7.78;;
74791;SDS011;63319;46.046;17.802;2023-12-22T15:31:36;20.50;;;9.15;;
74791;SDS011;63319;46.046;17.802;2023-12-22T15:34:43;26.80;;;9.70;;
74791;SDS011;63319;46.046;17.802;2023-12-22T15:37:46;21.42;;;9.38;;
74791;SDS011;63319;46.046;17.802;2023-12-22T15:40:48;18.63;;;9.00;;
74791;SDS011;63319;46.046;17.802;2023-12-22T15:43:51;16.43;;;7.50;;
74791;SDS011;63319;46.046;17.802;2023-12-22T15:46:54;16.50;;;7.65;;
74791;SDS011;63319;46.046;17.802;2023-12-22T15:49:57;13.60;;;6.35;;
74791;SDS011;63319;46.046;17.802;2023-12-22T15:53:00;16.77;;;8.53;;
74791;SDS011;63319;46.046;17.802;2023-12-22T15:56:07;15.68;;;6.95;;
74791;SDS011;63319;46.046;17.802;2023-12-22T15:59:11;15.38;;;6.63;;
74791;SDS011;63319;46.046;17.802;2023-12-22T16:02:15;9.45;;;3.88;;
74791;SDS011;63319;46.046;17.802;2023-12-22T16:05:18;13.02;;;4.60;;
74791;SDS011;63319;46.046;17.802;2023-12-22T16:08:22;11.20;;;4.72;;
74791;SDS011;63319;46.046;17.802;2023-12-22T16:11:25;20.98;;;11.52;;
74791;SDS011;63319;46.046;17.802;2023-12-22T16:14:32;13.20;;;6.73;;
74791;SDS011;63319;46.046;17.802;2023-12-22T16:17:35;9.73;;;4.90;;
74791;SDS011;63319;46.046;17.802;2023-12-22T16:20:39;9.45;;;3.80;;
74791;SDS011;63319;46.046;17.802;2023-12-22T16:23:42;11.53;;;5.07;;
74791;SDS011;63319;46.046;17.802;2023-12-22T16:26:45;10.75;;;5.25;;
74791;SDS011;63319;46.046;17.802;2023-12-22T16:29:48;12.38;;;5.55;;
74791;SDS011;63319;46.046;17.802;2023-12-22T16:32:51;24.42;;;13.55;;
74791;SDS011;63319;46.046;17.802;2023-12-22T16:35:55;14.45;;;7.07;;
74791;SDS011;63319;46.046;17.802;2023-12-22T16:38:58;14.85;;;6.95;;
74791;SDS011;63319;46.046;17.802;2023-12-22T16:42:01;20.65;;;8.68;;
74791;SDS011;63319;46.046;17.802;2023-12-22T16:45:05;23.97;;;10.63;;
74791;SDS011;63319;46.046;17.802;2023-12-22T16:48:08;23.52;;;8.88;;
74791;SDS011;63319;46.046;17.802;2023-12-22T16:51:11;21.17;;;10.10;;
74791;SDS011;63319;46.046;17.802;2023-12-22T16:54:15;27.73;;;13.70;;
74791;SDS011;63319;46.046;17.802;2023-12-22T16:57:17;29.88;;;14.73;;
74791;SDS011;63319;46.046;17.802;2023-12-22T17:00:20;26.10;;;12.68;;
74791;SDS011;63319;46.046;17.802;2023-12-22T17:03:24;33.33;;;13.65;;
74791;SDS011;63319;46.046;17.802;2023-12-22T17:06:27;31.42;;;11.65;;
74791;SDS011;63319;46.046;17.802;2023-12-22T17:09:30;24.92;;;13.38;;
74791;SDS011;63319;46.046;17.802;2023-12-22T17:12:34;21.92;;;10.48;;
74791;SDS011;63319;46.046;17.802;2023-12-22T17:15:37;17.87;;;8.23;;
74791;SDS011;63319;46.046;17.802;2023-12-22T17:18:40;16.08;;;7.80;;
74791;SDS011;63319;46.046;17.802;2023-12-22T17:21:44;12.27;;;5.40;;
74791;SDS011;63319;46.046;17.802;2023-12-22T17:24:47;11.67;;;6.03;;
74791;SDS011;63319;46.046;17.802;2023-12-22T17:27:50;14.30;;;7.28;;
74791;SDS011;63319;46.046;17.802;2023-12-22T17:30:54;19.17;;;7.65;;
74791;SDS011;63319;46.046;17.802;2023-12-22T17:33:56;13.70;;;5.40;;
74791;SDS011;63319;46.046;17.802;2023-12-22T17:37:03;16.92;;;6.88;;
74791;SDS011;63319;46.046;17.802;2023-12-22T17:40:09;9.60;;;4.10;;
74791;SDS011;63319;46.046;17.802;2023-12-22T17:43:12;6.95;;;2.30;;
74791;SDS011;63319;46.046;17.802;2023-12-22T17:46:17;7.03;;;2.83;;
74791;SDS011;63319;46.046;17.802;2023-12-22T17:49:21;5.70;;;1.70;;
74791;SDS011;63319;46.046;17.802;2023-12-22T17:52:24;6.32;;;2.20;;
74791;SDS011;63319;46.046;17.802;2023-12-22T17:55:27;7.33;;;2.50;;
74791;SDS011;63319;46.046;17.802;2023-12-22T17:58:30;19.50;;;7.80;;